British Envoy — MNAN4 — position and weather

sailwx.info

Track history (hours):
 
Tides and Currents Weather Stations Pressure Air Temp Water Temp Dewpoint Dewpoint Depression Visibility Wind Speed Wind Dir Waves Ship Positions

British Envoy

Last reported at 2014-Dec-17 11:13 UTC. Time now 2014-Dec-18 08:34 UTC.
Position S 33°54' E 026°32'.

Length 184.2 m; beam 27.4 m; draft 11.3 m.

Type: Tanker. MMSI: 235011280.

Date/timePositionNaut miles runAvg speedWind from/ knotsBaromVisibWave heightAir tempDewpointWater temp
2014-Dec-17 11:13S 33°54' E 026°32'1012.3
2014-Dec-17 10:23S 33°54' E 026°45'6613.0
2014-Dec-17 05:21S 33°24' E 027°54'3114.9
2014-Dec-17 03:15S 33°04' E 028°23'4615.3
2014-Dec-17 00:17S 32°32' E 029°02'1715.0
2014-Dec-16 23:11S 32°20' E 029°15'16212.9
2014-Dec-16 10:33S 30°09' E 031°07'1111.4
2014-Dec-16 09:33S 29°57' E 031°09'7 6.8
2014-Dec-16 08:33S 29°53' E 031°03'1 0.7
2014-Dec-16 07:24S 29°53' E 031°02'0 0.0
2014-Dec-16 06:30S 29°53' E 031°02'0 0.0
2014-Dec-14 10:04S 29°53' E 031°02'0 0.5
2014-Dec-14 09:33S 29°53' E 031°02'5 5.1
2014-Dec-14 08:33S 29°49' E 031°06'3 3.2
2014-Dec-14 07:33S 29°47' E 031°09'1 0.9
2014-Dec-14 06:29S 29°47' E 031°10'0 0.0
2014-Dec-14 05:29S 29°47' E 031°10'0 0.0
2014-Dec-14 04:29S 29°47' E 031°10'0 0.0
2014-Dec-14 03:29S 29°47' E 031°10'0 0.0
2014-Dec-14 02:29S 29°47' E 031°10'0 0.1
2014-Dec-14 01:29S 29°47' E 031°10'0 0.0
2014-Dec-14 00:29S 29°47' E 031°10'0 0.0
2014-Dec-13 23:29S 29°47' E 031°10'0 0.0
2014-Dec-13 22:29S 29°47' E 031°10'0 0.0
2014-Dec-13 21:29S 29°46' E 031°10'0 0.0
2014-Dec-13 20:29S 29°46' E 031°10'0 0.0
2014-Dec-13 19:29S 29°46' E 031°10'0 0.0
2014-Dec-13 18:29S 29°46' E 031°10'0 0.0
2014-Dec-13 17:29S 29°46' E 031°10'0 0.0
2014-Dec-13 16:29S 29°46' E 031°10'0 0.0
2014-Dec-13 15:29S 29°46' E 031°10'0 0.0
2014-Dec-13 14:29S 29°46' E 031°10'0 0.0
2014-Dec-13 13:29S 29°46' E 031°10'0 0.0
2014-Dec-13 12:29S 29°46' E 031°10'0 0.0
2014-Dec-13 11:29S 29°46' E 031°10'0 0.0
2014-Dec-13 10:29S 29°46' E 031°10'0 0.0
2014-Dec-13 09:29S 29°46' E 031°10'0 0.0
2014-Dec-13 08:23S 29°46' E 031°10'0 0.1
2014-Dec-13 07:29S 29°46' E 031°10'0 0.0
2014-Dec-13 06:29S 29°46' E 031°10'0 0.0
2014-Dec-13 05:29S 29°46' E 031°10'0 0.0
2014-Dec-13 04:29S 29°46' E 031°10'0 0.0
2014-Dec-13 03:29S 29°46' E 031°10'0 0.0
2014-Dec-13 02:23S 29°46' E 031°10'0 0.0
2014-Dec-13 01:29S 29°46' E 031°10'0 0.1
2014-Dec-13 00:29S 29°46' E 031°10'0 0.1
2014-Dec-12 23:29S 29°46' E 031°10'0 0.1
2014-Dec-12 22:29S 29°46' E 031°10'0 0.0
2014-Dec-12 21:29S 29°46' E 031°10'0 0.1
2014-Dec-12 20:17S 29°46' E 031°10'0 0.1
2014-Dec-12 19:29S 29°46' E 031°10'0 0.0
2014-Dec-12 18:29S 29°46' E 031°10'0 0.0
2014-Dec-12 17:29S 29°46' E 031°10'0 0.0
2014-Dec-12 16:29S 29°46' E 031°10'0 0.0
2014-Dec-12 15:29S 29°46' E 031°10'0 0.0
2014-Dec-12 14:29S 29°46' E 031°10'611.5
2014-Dec-12 14:00S 29°42' E 031°06'611.1 210 / 301007.5 5.4 1.523.520.4
2014-Dec-12 13:29S 29°46' E 031°10'0 0.2
2014-Dec-12 12:29S 29°47' E 031°10'0 0.1
2014-Dec-12 11:29S 29°47' E 031°10'0 0.0
2014-Dec-12 10:29S 29°47' E 031°10'0 0.0
2014-Dec-12 09:23S 29°47' E 031°10'0 0.1
2014-Dec-12 08:29S 29°47' E 031°10'0 0.0
2014-Dec-12 07:29S 29°47' E 031°10'0 0.1
2014-Dec-12 06:29S 29°47' E 031°10'0 0.0
2014-Dec-12 05:23S 29°47' E 031°10'0 0.0
2014-Dec-12 04:29S 29°47' E 031°10'0 0.0
2014-Dec-12 03:29S 29°47' E 031°10'0 0.0
2014-Dec-12 02:29S 29°47' E 031°10'0 0.0
2014-Dec-12 01:29S 29°47' E 031°10'0 0.0
2014-Dec-12 00:23S 29°47' E 031°10'0 0.0
2014-Dec-11 23:29S 29°47' E 031°10'0 0.1
2014-Dec-11 22:29S 29°47' E 031°10'0 0.0
2014-Dec-11 21:29S 29°47' E 031°10'0 0.0
2014-Dec-11 20:29S 29°47' E 031°10'0 0.0
2014-Dec-11 19:29S 29°47' E 031°10'1 0.8
2014-Dec-11 18:33S 29°48' E 031°10'10 9.9
2014-Dec-11 17:33S 29°57' E 031°08'1212.0
2014-Dec-11 16:33S 30°09' E 031°07'1211.6
2014-Dec-11 15:32S 30°20' E 031°01'12712.0
2014-Dec-11 05:00S 32°00' E 029°30'101 4.7 240 / 91015.710.8 0.522.019.720.5
2014-Dec-10 07:29S 33°02' E 027°55'9 7.0
2014-Dec-10 06:11S 33°11' E 027°55'7 3.5
2014-Dec-10 04:18S 33°17' E 027°59'22311.9
2014-Dec-09 09:28S 34°47' E 023°52'2215.8
2014-Dec-09 08:04S 34°52' E 023°26'24313.4
2014-Dec-08 14:00S 34°48' E 018°30'3010.4 090 / 151008.9 5.4 1.022.018.9
2014-Dec-08 11:07S 34°29' E 018°02'1312.5
2014-Dec-08 10:07S 34°17' E 018°06'912.7
2014-Dec-08 09:26S 34°09' E 018°09'  
Track history (hours):
 
Tides and Currents Weather Stations Pressure Air Temp Water Temp Dewpoint Dewpoint Depression Visibility Wind Speed Wind Dir Waves Ship Positions

British Envoy

Last reported at 2014-Dec-17 11:13 UTC. Time now 2014-Dec-18 08:34 UTC.
Position S 33°54' E 026°32'.

Length 184.2 m; beam 27.4 m; draft 11.3 m.

Type: Tanker. MMSI: 235011280.

Date/timePositionNaut miles runAvg speedWind from/ knotsBaromVisibWave heightAir tempDewpointWater temp
2014-Dec-17 11:13S 33°54' E 026°32'1012.3
2014-Dec-17 10:23S 33°54' E 026°45'6613.0
2014-Dec-17 05:21S 33°24' E 027°54'3114.9
2014-Dec-17 03:15S 33°04' E 028°23'4615.3
2014-Dec-17 00:17S 32°32' E 029°02'1715.0
2014-Dec-16 23:11S 32°20' E 029°15'16212.9
2014-Dec-16 10:33S 30°09' E 031°07'1111.4
2014-Dec-16 09:33S 29°57' E 031°09'7 6.8
2014-Dec-16 08:33S 29°53' E 031°03'1 0.7
2014-Dec-16 07:24S 29°53' E 031°02'0 0.0
2014-Dec-16 06:30S 29°53' E 031°02'0 0.0
2014-Dec-14 10:04S 29°53' E 031°02'0 0.5
2014-Dec-14 09:33S 29°53' E 031°02'5 5.1
2014-Dec-14 08:33S 29°49' E 031°06'3 3.2
2014-Dec-14 07:33S 29°47' E 031°09'1 0.9
2014-Dec-14 06:29S 29°47' E 031°10'0 0.0
2014-Dec-14 05:29S 29°47' E 031°10'0 0.0
2014-Dec-14 04:29S 29°47' E 031°10'0 0.0
2014-Dec-14 03:29S 29°47' E 031°10'0 0.0
2014-Dec-14 02:29S 29°47' E 031°10'0 0.1
2014-Dec-14 01:29S 29°47' E 031°10'0 0.0
2014-Dec-14 00:29S 29°47' E 031°10'0 0.0
2014-Dec-13 23:29S 29°47' E 031°10'0 0.0
2014-Dec-13 22:29S 29°47' E 031°10'0 0.0
2014-Dec-13 21:29S 29°46' E 031°10'0 0.0
2014-Dec-13 20:29S 29°46' E 031°10'0 0.0
2014-Dec-13 19:29S 29°46' E 031°10'0 0.0
2014-Dec-13 18:29S 29°46' E 031°10'0 0.0
2014-Dec-13 17:29S 29°46' E 031°10'0 0.0
2014-Dec-13 16:29S 29°46' E 031°10'0 0.0
2014-Dec-13 15:29S 29°46' E 031°10'0 0.0
2014-Dec-13 14:29S 29°46' E 031°10'0 0.0
2014-Dec-13 13:29S 29°46' E 031°10'0 0.0
2014-Dec-13 12:29S 29°46' E 031°10'0 0.0
2014-Dec-13 11:29S 29°46' E 031°10'0 0.0
2014-Dec-13 10:29S 29°46' E 031°10'0 0.0
2014-Dec-13 09:29S 29°46' E 031°10'0 0.0
2014-Dec-13 08:23S 29°46' E 031°10'0 0.1
2014-Dec-13 07:29S 29°46' E 031°10'0 0.0
2014-Dec-13 06:29S 29°46' E 031°10'0 0.0
2014-Dec-13 05:29S 29°46' E 031°10'0 0.0
2014-Dec-13 04:29S 29°46' E 031°10'0 0.0
2014-Dec-13 03:29S 29°46' E 031°10'0 0.0
2014-Dec-13 02:23S 29°46' E 031°10'0 0.0
2014-Dec-13 01:29S 29°46' E 031°10'0 0.1
2014-Dec-13 00:29S 29°46' E 031°10'0 0.1
2014-Dec-12 23:29S 29°46' E 031°10'0 0.1
2014-Dec-12 22:29S 29°46' E 031°10'0 0.0
2014-Dec-12 21:29S 29°46' E 031°10'0 0.1
2014-Dec-12 20:17S 29°46' E 031°10'0 0.1
2014-Dec-12 19:29S 29°46' E 031°10'0 0.0
2014-Dec-12 18:29S 29°46' E 031°10'0 0.0
2014-Dec-12 17:29S 29°46' E 031°10'0 0.0
2014-Dec-12 16:29S 29°46' E 031°10'0 0.0
2014-Dec-12 15:29S 29°46' E 031°10'0 0.0
2014-Dec-12 14:29S 29°46' E 031°10'611.5
2014-Dec-12 14:00S 29°42' E 031°06'611.1 210 / 301007.5 5.4 1.523.520.4
2014-Dec-12 13:29S 29°46' E 031°10'0 0.2
2014-Dec-12 12:29S 29°47' E 031°10'0 0.1
2014-Dec-12 11:29S 29°47' E 031°10'0 0.0
2014-Dec-12 10:29S 29°47' E 031°10'0 0.0
2014-Dec-12 09:23S 29°47' E 031°10'0 0.1
2014-Dec-12 08:29S 29°47' E 031°10'0 0.0
2014-Dec-12 07:29S 29°47' E 031°10'0 0.1
2014-Dec-12 06:29S 29°47' E 031°10'0 0.0
2014-Dec-12 05:23S 29°47' E 031°10'0 0.0
2014-Dec-12 04:29S 29°47' E 031°10'0 0.0
2014-Dec-12 03:29S 29°47' E 031°10'0 0.0
2014-Dec-12 02:29S 29°47' E 031°10'0 0.0
2014-Dec-12 01:29S 29°47' E 031°10'0 0.0
2014-Dec-12 00:23S 29°47' E 031°10'0 0.0
2014-Dec-11 23:29S 29°47' E 031°10'0 0.1
2014-Dec-11 22:29S 29°47' E 031°10'0 0.0
2014-Dec-11 21:29S 29°47' E 031°10'0 0.0
2014-Dec-11 20:29S 29°47' E 031°10'0 0.0
2014-Dec-11 19:29S 29°47' E 031°10'1 0.8
2014-Dec-11 18:33S 29°48' E 031°10'10 9.9
2014-Dec-11 17:33S 29°57' E 031°08'1212.0
2014-Dec-11 16:33S 30°09' E 031°07'1211.6
2014-Dec-11 15:32S 30°20' E 031°01'12712.0
2014-Dec-11 05:00S 32°00' E 029°30'101 4.7 240 / 91015.710.8 0.522.019.720.5
2014-Dec-10 07:29S 33°02' E 027°55'9 7.0
2014-Dec-10 06:11S 33°11' E 027°55'7 3.5
2014-Dec-10 04:18S 33°17' E 027°59'22311.9
2014-Dec-09 09:28S 34°47' E 023°52'2215.8
2014-Dec-09 08:04S 34°52' E 023°26'24313.4
2014-Dec-08 14:00S 34°48' E 018°30'3010.4 090 / 151008.9 5.4 1.022.018.9
2014-Dec-08 11:07S 34°29' E 018°02'1312.5
2014-Dec-08 10:07S 34°17' E 018°06'912.7
2014-Dec-08 09:26S 34°09' E 018°09'  

Dump ship's entire track history